Peotone Weather

Nearby METAR Reports

 

KIGQ - Lansing, Illinois, USA
Distance from station: NE 19mi, 30km
Updated: Tue, 19-Mar-2019 9:47am CDT
unable to load KIGQ data RC=
unable to load KIGQ data RC=
 
KIKK - Kankakee, Illinois, USA
Distance from station: S 19mi, 30km
Updated: Tue, 19-Mar-2019 9:47am CDT
unable to load KIKK data RC=
unable to load KIKK data RC=
 
 
KSJC - Joliet, Illinois, USA
Distance from station: WNW 24mi, 38km
Updated: Tue, 19-Mar-2019 8:53am CDT
NOT Current
Overcast
Overcast
 Wind from calm
Wind: Calm
Temperature: 52°F , 11°C
Dew Point: 46°F , 8°C
Humidity: 82%
Barometer: 29.91 inHg , 1012.9 hPa
Clouds: Overcast
Visibility: 10 miles , 16 km
Cloud details: Few Clouds 100 ft
Mostly cloudy 9000 ft
Overcast 13000 ft
2019/03/19 13:53 KSJC 191353Z 00000KT 10SM FEW001 BKN090 OVC130 11/08 A2991 RMK AO2 SLP127 T01060083
KLOT - Romeoville, Illinois, USA
Distance from station: NW 26mi, 41km
Updated: Tue, 19-Mar-2019 9:35am CDT
Clear
Clear
 Wind from WSW
Wind: WSW 6 mph , 9 km/h
Temperature: 39°F , 4°C
Wind Chill: 35°F , 2°C
Dew Point: 30°F , -1°C
Humidity: 70%
Barometer: 30.42 inHg , 1030.1 hPa
Clouds: Clear
Visibility: 10 miles , 16 km
2019/03/19 14:35 KLOT 191435Z AUTO 24005KT 10SM CLR 04/M01 A3042 RMK AO2 T00391013
 
KMDW - Midway Airport Chicago, Illinois, USA
Distance from station: N 31mi, 50km
Updated: Tue, 19-Mar-2019 8:53am CDT
NOT Current
Few Clouds
Few Clouds
 Wind from WSW
Wind: WSW 7 mph , 11 km/h
Temperature: 37°F , 3°C
Wind Chill: 32°F , 0°C
Dew Point: 27°F , -3°C
Humidity: 65%
Barometer: 30.41 inHg , 1029.8 hPa
Clouds: Few Clouds
Visibility: 10 miles , 16 km
Cloud details: Few Clouds 25000 ft
2019/03/19 13:53 KMDW 191353Z 24006KT 10SM FEW250 03/M03 A3041 RMK AO2 SLP308 T00281028
KC09 - Morris, Illinois, USA
Distance from station: W 34mi, 54km
Updated: Tue, 19-Mar-2019 9:35am CDT
Clear
Clear
 Wind from WSW
Wind: WSW 6 mph , 9 km/h
Temperature: 39°F , 4°C
Wind Chill: 35°F , 2°C
Dew Point: 32°F , 0°C
Humidity: 75%
Barometer: 30.42 inHg , 1030.1 hPa
Clouds: Clear
Visibility: 10 miles , 16 km
2019/03/19 14:35 KC09 191435Z AUTO 25005KT 10SM CLR 04/00 A3042 RMK AO2 T00361002

Metar display script from Saratoga-Weather.org